Time;durP1;ratioP1;P1;durP2;ratioP2;P2;SDS_P1;SDS_P2;PMS_P1;PMS_P2;Temp;Humidity;BMP_temperature;BMP_pressure;BME280_temperature;BME280_humidity;BME280_pressure;Samples;Min_cycle;Max_cycle;Signal;HPM_P1;HPM_P2
2022/01/13 00:02:10;;;;;;;;;;;;;;;;;;5113961;28;20329;-74
2022/01/13 00:04:35;;;;;;;;;;;;;;;;;;5115108;28;20301;-75
2022/01/13 00:07:00;;;;;;;;;;;;;;;;;;5113596;28;20019;-76
2022/01/13 00:09:26;;;;;;;;;;;;;;;;;;5115238;28;19939;-75
2022/01/13 00:11:52;;;;;;;;;;;;;;;;;;5114994;28;20257;-74
2022/01/13 00:17:06;;;;;;;;;;;;;;;;;;5115716;28;19916;-74
2022/01/13 00:24:48;;;;;;;;;;;;;;;;;;5114838;28;19923;-76
2022/01/13 00:27:15;;;;;;;;;;;;;;;;;;5114856;28;19916;-75
2022/01/13 00:29:43;;;;;;;;;;;;;;;;;;5114828;28;20306;-75
2022/01/13 00:32:09;;;;;;;;;;;;;;;;;;5097095;28;19922;-75
2022/01/13 00:34:34;;;;;;;;;;;;;;;;;;5113481;28;19916;-74
2022/01/13 00:36:59;;;;;;;;;;;;;;;;;;5119551;28;20333;-75
2022/01/13 00:39:25;;;;;;;;;;;;;;;;;;5101063;28;19999;-76
2022/01/13 00:41:50;;;;;;;;;;;;;;;;;;5118822;28;19923;-76
2022/01/13 00:44:19;;;;;;;;;;;;;;;;;;5117438;28;19916;-75
2022/01/13 00:46:48;;;;;;;;;;;;;;;;;;5117630;28;19916;-76
2022/01/13 00:49:13;;;;;;;;;;;;;;;;;;5117068;28;19916;-75
2022/01/13 00:51:39;;;;;;;;;;;;;;;;;;5117401;28;19923;-75
2022/01/13 00:54:06;;;;;;;;;;;;;;;;;;5117358;28;19959;-75
2022/01/13 00:56:34;;;;;;;;;;;;;;;;;;5100537;28;19920;-75
2022/01/13 00:59:00;;;;;;;;;;;;;;;;;;5107837;28;19998;-75
2022/01/13 01:01:25;;;;;;;;;;;;;;;;;;5117467;28;19948;-75
2022/01/13 01:03:50;;;;;;;;;;;;;;;;;;5118350;28;19915;-75
2022/01/13 01:06:16;;;;;;;;;;;;;;;;;;5118543;28;19923;-75
2022/01/13 01:08:42;;;;;;;;;;;;;;;;;;5118232;28;19915;-75
2022/01/13 01:11:08;;;;;;;;;;;;;;;;;;5117087;28;20287;-75
2022/01/13 01:13:35;;;;;;;;;;;;;;;;;;5118145;28;19916;-75
2022/01/13 01:16:02;;;;;;;;;;;;;;;;;;5116999;28;20344;-75
2022/01/13 01:23:57;;;;;;;;;;;;;;;;;;5118007;28;19919;-75
2022/01/13 01:29:06;;;;;;;;;;;;;;;;;;5117048;28;19916;-78
2022/01/13 01:31:34;;;;;;;;;;;;;;;;;;5117748;28;19922;-75
2022/01/13 01:34:26;;;;;;;;;;;;;;;;;;5117769;28;19920;-76
2022/01/13 01:36:52;;;;;;;;;;;;;;;;;;5117611;28;20393;-75
2022/01/13 01:39:18;;;;;;;;;;;;;;;;;;5117860;28;19916;-75
2022/01/13 01:41:44;;;;;;;;;;;;;;;;;;5122673;28;20280;-75
2022/01/13 01:44:10;;;;;;;;;;;;;;;;;;5116933;28;20551;-75
2022/01/13 01:46:39;;;;;;;;;;;;;;;;;;5117559;28;19919;-75
2022/01/13 01:49:14;;;;;;;;;;;;;;;;;;5115502;28;19915;-75
2022/01/13 01:51:40;;;;;;;;;;;;;;;;;;5116299;28;19916;-75
2022/01/13 01:54:05;;;;;;;;;;;;;;;;;;5117287;28;20324;-74
2022/01/13 01:56:31;;;;;;;;;;;;;;;;;;5117151;28;20332;-75
2022/01/13 01:59:01;;;;;;;;;;;;;;;;;;5117529;28;20230;-74
2022/01/13 02:01:27;;;;;;;;;;;;;;;;;;5117497;28;19950;-76
2022/01/13 02:03:52;;;;;;;;;;;;;;;;;;5109007;28;19916;-76
2022/01/13 02:06:18;;;;;;;;;;;;;;;;;;5117082;28;20023;-75
2022/01/13 02:08:44;;;;;;;;;;;;;;;;;;5099008;28;19923;-75
2022/01/13 02:11:09;;;;;;;;;;;;;;;;;;5081913;28;19942;-75
2022/01/13 02:13:36;;;;;;;;;;;;;;;;;;5116907;28;19923;-76
2022/01/13 02:16:04;;;;;;;;;;;;;;;;;;5098861;28;19919;-75
2022/01/13 02:18:30;;;;;;;;;;;;;;;;;;5117030;28;19916;-75
2022/01/13 02:20:56;;;;;;;;;;;;;;;;;;5116823;28;20378;-75
2022/01/13 02:23:28;;;;;;;;;;;;;;;;;;5117799;28;19916;-75
2022/01/13 02:25:54;;;;;;;;;;;;;;;;;;5108626;28;19965;-75
2022/01/13 02:28:19;;;;;;;;;;;;;;;;;;5116794;28;20321;-75
2022/01/13 02:30:44;;;;;;;;;;;;;;;;;;5098038;28;19973;-75
2022/01/13 02:33:10;;;;;;;;;;;;;;;;;;5098490;28;20276;-75
2022/01/13 02:35:35;;;;;;;;;;;;;;;;;;5116532;28;19916;-75
2022/01/13 02:38:00;;;;;;;;;;;;;;;;;;5098301;28;19923;-75
2022/01/13 02:40:26;;;;;;;;;;;;;;;;;;5116694;28;19916;-75
2022/01/13 02:42:51;;;;;;;;;;;;;;;;;;5116387;28;19962;-75
2022/01/13 02:45:20;;;;;;;;;;;;;;;;;;5117920;28;19916;-75
2022/01/13 02:50:11;;;;;;;;;;;;;;;;;;5116248;28;19916;-75
2022/01/13 02:52:37;;;;;;;;;;;;;;;;;;5116189;28;19916;-76
2022/01/13 02:55:03;;;;;;;;;;;;;;;;;;5098044;28;19915;-76
2022/01/13 02:57:28;;;;;;;;;;;;;;;;;;5111757;28;20025;-75
2022/01/13 02:59:53;;;;;;;;;;;;;;;;;;5115215;28;19947;-76
2022/01/13 03:02:19;;;;;;;;;;;;;;;;;;5114835;28;19919;-75
2022/01/13 03:04:45;;;;;;;;;;;;;;;;;;5116211;28;19938;-75
2022/01/13 03:07:10;;;;;;;;;;;;;;;;;;5117313;28;19912;-75
2022/01/13 03:09:36;;;;;;;;;;;;;;;;;;5115872;28;19915;-75
2022/01/13 03:12:01;;;;;;;;;;;;;;;;;;5114631;28;19923;-76
2022/01/13 03:14:26;;;;;;;;;;;;;;;;;;5115460;28;19998;-75
2022/01/13 03:16:52;;;;;;;;;;;;;;;;;;5115654;28;19923;-75
2022/01/13 03:19:17;;;;;;;;;;;;;;;;;;5114673;28;20286;-75
2022/01/13 03:21:42;;;;;;;;;;;;;;;;;;5116309;28;20333;-76
2022/01/13 03:24:10;;;;;;;;;;;;;;;;;;5115313;28;20009;-76
2022/01/13 03:26:36;;;;;;;;;;;;;;;;;;5118465;28;19916;-74
2022/01/13 03:31:35;;;;;;;;;;;;;;;;;;5116075;28;20029;-77
2022/01/13 03:34:01;;;;;;;;;;;;;;;;;;5115441;28;19958;-76
2022/01/13 03:36:26;;;;;;;;;;;;;;;;;;5114335;28;20003;-76
2022/01/13 03:38:53;;;;;;;;;;;;;;;;;;5097606;28;19973;-77
2022/01/13 03:41:18;;;;;;;;;;;;;;;;;;5115313;28;19916;-76
2022/01/13 03:43:44;;;;;;;;;;;;;;;;;;5115036;28;19915;-76
2022/01/13 03:46:11;;;;;;;;;;;;;;;;;;5116810;28;19915;-75
2022/01/13 03:48:36;;;;;;;;;;;;;;;;;;5121399;28;19916;-76
2022/01/13 03:51:01;;;;;;;;;;;;;;;;;;5115195;28;19916;-75
2022/01/13 03:53:27;;;;;;;;;;;;;;;;;;5115120;28;19920;-76
2022/01/13 03:56:18;;;;;;;;;;;;;;;;;;5115118;28;19920;-76
2022/01/13 03:58:43;;;;;;;;;;;;;;;;;;5075715;28;20025;-76
2022/01/13 04:01:18;;;;;;;;;;;;;;;;;;5115323;28;20329;-76
2022/01/13 04:03:44;;;;;;;;;;;;;;;;;;5115645;28;20347;-76
2022/01/13 04:06:16;;;;;;;;;;;;;;;;;;5097285;28;19923;-77
2022/01/13 04:08:41;;;;;;;;;;;;;;;;;;5103410;28;20313;-77
2022/01/13 04:11:07;;;;;;;;;;;;;;;;;;5116958;28;20012;-76
2022/01/13 04:14:26;;;;;;;;;;;;;;;;;;5101307;28;20065;-76
2022/01/13 04:16:19;;;;;;;;;;;;;;;;;;5108012;28;19920;-76
2022/01/13 04:18:45;;;;;;;;;;;;;;;;;;5101562;28;19942;-77
2022/01/13 04:21:10;;;;;;;;;;;;;;;;;;5101274;28;20259;-76
2022/01/13 04:23:36;;;;;;;;;;;;;;;;;;5119153;28;20284;-75
2022/01/13 04:26:05;;;;;;;;;;;;;;;;;;5100866;28;19916;-76
2022/01/13 04:28:31;;;;;;;;;;;;;;;;;;5126778;28;19916;-77
2022/01/13 04:31:02;;;;;;;;;;;;;;;;;;5119074;28;20003;-76
2022/01/13 04:33:28;;;;;;;;;;;;;;;;;;5119476;28;19949;-76
2022/01/13 04:35:53;;;;;;;;;;;;;;;;;;5118954;28;19916;-76
2022/01/13 04:38:19;;;;;;;;;;;;;;;;;;5100664;28;19981;-74
2022/01/13 04:40:46;;;;;;;;;;;;;;;;;;5101378;28;19926;-77
2022/01/13 04:43:12;;;;;;;;;;;;;;;;;;5103070;28;19916;-75
2022/01/13 04:45:37;;;;;;;;;;;;;;;;;;5084673;28;20067;-76
2022/01/13 04:48:03;;;;;;;;;;;;;;;;;;5121003;28;19916;-76
2022/01/13 04:50:28;;;;;;;;;;;;;;;;;;5102756;28;19919;-75
2022/01/13 04:52:53;;;;;;;;;;;;;;;;;;5118590;28;19915;-75
2022/01/13 04:55:24;;;;;;;;;;;;;;;;;;5118364;28;19916;-76
2022/01/13 04:57:49;;;;;;;;;;;;;;;;;;5118297;28;19923;-76
2022/01/13 05:00:15;;;;;;;;;;;;;;;;;;5083413;28;19923;-75
2022/01/13 05:02:40;;;;;;;;;;;;;;;;;;5100054;28;19916;-75
2022/01/13 05:05:06;;;;;;;;;;;;;;;;;;5118521;28;19955;-75
2022/01/13 05:07:32;;;;;;;;;;;;;;;;;;5118108;28;19926;-75
2022/01/13 05:09:57;;;;;;;;;;;;;;;;;;5125302;28;19915;-74
2022/01/13 05:12:29;;;;;;;;;;;;;;;;;;5117905;28;19923;-75
2022/01/13 05:14:57;;;;;;;;;;;;;;;;;;5118093;28;19938;-75
2022/01/13 05:17:47;;;;;;;;;;;;;;;;;;5100195;28;19927;-75
2022/01/13 05:20:22;;;;;;;;;;;;;;;;;;5117778;28;19915;-74
2022/01/13 05:22:48;;;;;;;;;;;;;;;;;;5116907;28;19950;-75
2022/01/13 05:25:14;;;;;;;;;;;;;;;;;;5117679;28;20014;-76
2022/01/13 05:27:39;;;;;;;;;;;;;;;;;;5099778;28;19947;-76
2022/01/13 05:30:05;;;;;;;;;;;;;;;;;;5122788;28;19934;-74
2022/01/13 05:32:30;;;;;;;;;;;;;;;;;;5117510;28;20032;-76
2022/01/13 05:34:55;;;;;;;;;;;;;;;;;;5117664;28;19916;-77
2022/01/13 05:37:21;;;;;;;;;;;;;;;;;;5117499;28;20347;-77
2022/01/13 05:39:46;;;;;;;;;;;;;;;;;;5096582;28;20352;-76
2022/01/13 05:42:12;;;;;;;;;;;;;;;;;;5095403;28;19916;-75
2022/01/13 05:44:38;;;;;;;;;;;;;;;;;;5078997;28;19916;-76
2022/01/13 05:47:07;;;;;;;;;;;;;;;;;;5096956;28;20307;-76
2022/01/13 05:49:32;;;;;;;;;;;;;;;;;;5102576;28;20268;-76
2022/01/13 05:51:57;;;;;;;;;;;;;;;;;;5099346;28;19916;-75
2022/01/13 05:54:23;;;;;;;;;;;;;;;;;;5094325;28;20500;-78
2022/01/13 05:56:48;;;;;;;;;;;;;;;;;;5095203;28;19955;-78
2022/01/13 05:59:14;;;;;;;;;;;;;;;;;;5090511;28;19926;-75
2022/01/13 06:01:39;;;;;;;;;;;;;;;;;;5080224;28;19928;-74
2022/01/13 06:04:05;;;;;;;;;;;;;;;;;;5080204;28;19986;-76
2022/01/13 06:06:30;;;;;;;;;;;;;;;;;;5088029;28;19923;-78
2022/01/13 06:08:55;;;;;;;;;;;;;;;;;;5092146;28;19924;-77
2022/01/13 06:11:23;;;;;;;;;;;;;;;;;;5101471;28;19927;-75
2022/01/13 06:13:48;;;;;;;;;;;;;;;;;;5073948;28;20409;-76
2022/01/13 06:16:14;;;;;;;;;;;;;;;;;;5089358;28;19928;-77
2022/01/13 06:18:39;;;;;;;;;;;;;;;;;;5090192;28;19920;-77
2022/01/13 06:21:05;;;;;;;;;;;;;;;;;;5090118;28;19920;-77
2022/01/13 06:23:30;;;;;;;;;;;;;;;;;;5052677;28;20270;-78
2022/01/13 06:25:57;;;;;;;;;;;;;;;;;;5086780;28;20008;-78
2022/01/13 06:28:23;;;;;;;;;;;;;;;;;;5073055;28;19920;-78
2022/01/13 06:30:48;;;;;;;;;;;;;;;;;;5081689;28;19927;-78
2022/01/13 06:33:17;;;;;;;;;;;;;;;;;;5075594;28;20332;-81
2022/01/13 06:35:42;;;;;;;;;;;;;;;;;;5057724;28;19931;-78
2022/01/13 06:38:08;;;;;;;;;;;;;;;;;;5065250;28;19920;-79
2022/01/13 06:40:33;;;;;;;;;;;;;;;;;;5093802;28;19955;-76
2022/01/13 06:42:58;;;;;;;;;;;;;;;;;;5088995;28;19927;-74
2022/01/13 06:45:24;;;;;;;;;;;;;;;;;;5086557;28;19960;-81
2022/01/13 06:47:57;;;;;;;;;;;;;;;;;;5104997;27;19931;-80
2022/01/13 06:50:22;;;;;;;;;;;;;;;;;;5095568;28;19927;-80
2022/01/13 06:52:57;;;;;;;;;;;;;;;;;;5099680;28;19916;-86
2022/01/13 06:55:23;;;;;;;;;;;;;;;;;;5073225;28;20261;-80
2022/01/13 06:57:48;;;;;;;;;;;;;;;;;;5089008;28;19924;-76
2022/01/13 07:00:14;;;;;;;;;;;;;;;;;;5083559;28;19950;-78
2022/01/13 07:02:39;;;;;;;;;;;;;;;;;;5082556;28;19928;-79
2022/01/13 07:05:08;;;;;;;;;;;;;;;;;;5084429;28;19924;-79
2022/01/13 07:07:34;;;;;;;;;;;;;;;;;;5086672;28;19974;-78
2022/01/13 07:09:59;;;;;;;;;;;;;;;;;;5083965;28;19931;-78
2022/01/13 07:12:25;;;;;;;;;;;;;;;;;;5082072;28;19924;-78
2022/01/13 07:14:50;;;;;;;;;;;;;;;;;;5086863;28;19920;-79
2022/01/13 07:17:15;;;;;;;;;;;;;;;;;;5086310;28;19921;-76
2022/01/13 07:19:41;;;;;;;;;;;;;;;;;;5085230;28;21414;-78
2022/01/13 07:22:09;;;;;;;;;;;;;;;;;;5082037;28;19920;-75
2022/01/13 07:24:35;;;;;;;;;;;;;;;;;;5079263;28;20014;-77
2022/01/13 07:27:00;;;;;;;;;;;;;;;;;;5085466;28;19983;-78
2022/01/13 07:29:25;;;;;;;;;;;;;;;;;;5081088;28;20264;-76
2022/01/13 07:31:51;;;;;;;;;;;;;;;;;;5078486;28;20507;-77
2022/01/13 07:34:16;;;;;;;;;;;;;;;;;;5077177;28;19930;-74
2022/01/13 07:36:42;;;;;;;;;;;;;;;;;;5077855;28;19927;-76
2022/01/13 07:39:08;;;;;;;;;;;;;;;;;;5079206;28;19920;-76
2022/01/13 07:41:33;;;;;;;;;;;;;;;;;;5083140;28;19927;-77
2022/01/13 07:44:00;;;;;;;;;;;;;;;;;;5087722;28;20410;-77
2022/01/13 07:46:25;;;;;;;;;;;;;;;;;;5085423;28;19932;-76
2022/01/13 07:48:51;;;;;;;;;;;;;;;;;;5087077;28;19920;-77
2022/01/13 07:51:22;;;;;;;;;;;;;;;;;;5089576;28;19955;-77
2022/01/13 07:53:48;;;;;;;;;;;;;;;;;;5092969;28;19923;-77
2022/01/13 07:56:13;;;;;;;;;;;;;;;;;;5091474;28;19920;-78
2022/01/13 07:58:40;;;;;;;;;;;;;;;;;;5091627;28;19964;-77
2022/01/13 08:01:05;;;;;;;;;;;;;;;;;;5091916;28;20272;-76
2022/01/13 08:03:31;;;;;;;;;;;;;;;;;;5091535;28;19931;-77
2022/01/13 08:05:58;;;;;;;;;;;;;;;;;;5091773;28;19916;-75
2022/01/13 08:08:23;;;;;;;;;;;;;;;;;;5098999;28;20349;-76
2022/01/13 08:10:49;;;;;;;;;;;;;;;;;;5089979;28;19942;-77
2022/01/13 08:13:14;;;;;;;;;;;;;;;;;;5091886;28;19920;-76
2022/01/13 08:15:40;;;;;;;;;;;;;;;;;;5092018;28;19916;-77
2022/01/13 08:20:49;;;;;;;;;;;;;;;;;;5091358;28;19974;-77
2022/01/13 08:23:15;;;;;;;;;;;;;;;;;;5092057;28;19966;-77
2022/01/13 08:25:40;;;;;;;;;;;;;;;;;;5093868;28;20238;-76
2022/01/13 08:28:06;;;;;;;;;;;;;;;;;;5103929;28;19922;-76
2022/01/13 08:30:32;;;;;;;;;;;;;;;;;;5093134;28;20006;-76
2022/01/13 08:33:03;;;;;;;;;;;;;;;;;;5093607;28;19924;-78
2022/01/13 08:35:29;;;;;;;;;;;;;;;;;;5093129;28;20391;-76
2022/01/13 08:37:54;;;;;;;;;;;;;;;;;;5092918;28;19916;-74
2022/01/13 08:40:20;;;;;;;;;;;;;;;;;;5093070;28;19959;-77
2022/01/13 08:42:45;;;;;;;;;;;;;;;;;;5090696;28;19988;-76
2022/01/13 08:45:11;;;;;;;;;;;;;;;;;;5090952;28;20257;-78
2022/01/13 08:47:37;;;;;;;;;;;;;;;;;;5102630;28;19922;-76
2022/01/13 08:50:02;;;;;;;;;;;;;;;;;;5092687;28;20090;-79
2022/01/13 08:52:28;;;;;;;;;;;;;;;;;;5090659;28;20028;-77
2022/01/13 08:54:59;;;;;;;;;;;;;;;;;;5098121;28;20305;-75
2022/01/13 08:57:24;;;;;;;;;;;;;;;;;;5091628;28;19971;-75
2022/01/13 08:59:50;;;;;;;;;;;;;;;;;;5072869;28;19962;-77
2022/01/13 09:02:15;;;;;;;;;;;;;;;;;;5089302;28;19920;-77
2022/01/13 09:04:44;;;;;;;;;;;;;;;;;;5090121;28;19927;-78
2022/01/13 09:07:12;;;;;;;;;;;;;;;;;;5094142;28;19931;-77
2022/01/13 09:09:38;;;;;;;;;;;;;;;;;;5074023;28;19924;-77
2022/01/13 09:12:03;;;;;;;;;;;;;;;;;;5089613;28;20141;-79
2022/01/13 09:14:31;;;;;;;;;;;;;;;;;;5091196;28;19916;-79
2022/01/13 09:16:58;;;;;;;;;;;;;;;;;;5054927;28;20525;-78
2022/01/13 09:19:23;;;;;;;;;;;;;;;;;;5075097;28;20023;-77
2022/01/13 09:21:48;;;;;;;;;;;;;;;;;;5074133;28;20002;-79
2022/01/13 09:24:15;;;;;;;;;;;;;;;;;;5075302;28;19916;-78
2022/01/13 09:26:40;;;;;;;;;;;;;;;;;;5078993;28;19920;-77
2022/01/13 09:29:06;;;;;;;;;;;;;;;;;;5098639;28;20326;-78
2022/01/13 09:31:32;;;;;;;;;;;;;;;;;;5094165;28;19928;-77
2022/01/13 09:33:57;;;;;;;;;;;;;;;;;;5076434;28;19940;-77
2022/01/13 09:36:22;;;;;;;;;;;;;;;;;;5095240;28;19985;-77
2022/01/13 09:38:51;;;;;;;;;;;;;;;;;;5094048;28;19921;-79
2022/01/13 09:41:17;;;;;;;;;;;;;;;;;;5054101;28;19939;-79
2022/01/13 09:43:42;;;;;;;;;;;;;;;;;;5075420;28;19916;-78
2022/01/13 09:46:09;;;;;;;;;;;;;;;;;;5094760;28;20258;-79
2022/01/13 09:48:37;;;;;;;;;;;;;;;;;;5083817;28;19970;-78
2022/01/13 09:51:02;;;;;;;;;;;;;;;;;;5077108;28;19999;-78
2022/01/13 09:53:28;;;;;;;;;;;;;;;;;;5060651;28;20077;-77
2022/01/13 09:55:53;;;;;;;;;;;;;;;;;;5092707;28;19920;-77
2022/01/13 09:58:19;;;;;;;;;;;;;;;;;;5092805;28;19927;-76
2022/01/13 10:00:44;;;;;;;;;;;;;;;;;;5091987;28;19920;-77
2022/01/13 10:03:10;;;;;;;;;;;;;;;;;;5094989;28;19951;-79
2022/01/13 10:05:37;;;;;;;;;;;;;;;;;;5093448;28;19917;-78
2022/01/13 10:08:02;;;;;;;;;;;;;;;;;;5078878;28;19924;-76
2022/01/13 10:10:30;;;;;;;;;;;;;;;;;;5076223;28;19916;-75
2022/01/13 10:13:00;;;;;;;;;;;;;;;;;;5077224;28;19951;-77
2022/01/13 10:18:09;;;;;;;;;;;;;;;;;;5093972;28;19985;-78
2022/01/13 10:20:34;;;;;;;;;;;;;;;;;;5094787;28;20317;-77
2022/01/13 10:23:09;;;;;;;;;;;;;;;;;;5094703;28;20299;-77
2022/01/13 10:25:36;;;;;;;;;;;;;;;;;;5099719;28;20343;-79
2022/01/13 10:28:11;;;;;;;;;;;;;;;;;;5102320;28;19917;-77
2022/01/13 10:30:36;;;;;;;;;;;;;;;;;;5092881;28;19920;-77
2022/01/13 10:33:12;;;;;;;;;;;;;;;;;;5057526;28;19974;-77
2022/01/13 10:35:37;;;;;;;;;;;;;;;;;;5059591;28;19953;-77
2022/01/13 10:38:06;;;;;;;;;;;;;;;;;;5076773;28;20334;-78
2022/01/13 10:40:39;;;;;;;;;;;;;;;;;;5078022;28;19927;-76
2022/01/13 10:43:06;;;;;;;;;;;;;;;;;;5078485;28;19916;-78
2022/01/13 10:45:50;;;;;;;;;;;;;;;;;;5061995;28;19927;-77
2022/01/13 10:48:26;;;;;;;;;;;;;;;;;;5077755;28;19920;-79
2022/01/13 10:50:54;;;;;;;;;;;;;;;;;;5070124;28;19933;-78
2022/01/13 10:53:28;;;;;;;;;;;;;;;;;;5094256;28;19938;-76
2022/01/13 10:55:57;;;;;;;;;;;;;;;;;;5093511;28;20018;-77
2022/01/13 10:58:24;;;;;;;;;;;;;;;;;;5059192;28;19917;-74
2022/01/13 11:00:50;;;;;;;;;;;;;;;;;;5077323;28;19947;-77
2022/01/13 11:03:16;;;;;;;;;;;;;;;;;;5094669;28;20308;-76
2022/01/13 11:05:44;;;;;;;;;;;;;;;;;;5073963;28;19952;-77
2022/01/13 11:08:10;;;;;;;;;;;;;;;;;;5100964;28;19923;-76
2022/01/13 11:10:36;;;;;;;;;;;;;;;;;;5074585;28;19916;-78
2022/01/13 11:13:05;;;;;;;;;;;;;;;;;;5092836;28;19962;-77
2022/01/13 11:15:30;;;;;;;;;;;;;;;;;;5094100;28;19941;-78
2022/01/13 11:17:57;;;;;;;;;;;;;;;;;;5076739;28;20337;-78
2022/01/13 11:20:23;;;;;;;;;;;;;;;;;;5092383;28;20257;-76
2022/01/13 11:22:52;;;;;;;;;;;;;;;;;;5094688;28;19916;-77
2022/01/13 11:25:18;;;;;;;;;;;;;;;;;;5094134;28;20057;-77
2022/01/13 11:27:44;;;;;;;;;;;;;;;;;;5086363;28;19955;-78
2022/01/13 11:30:11;;;;;;;;;;;;;;;;;;5077615;28;20257;-77
2022/01/13 11:32:38;;;;;;;;;;;;;;;;;;5094795;28;19952;-77
2022/01/13 11:35:04;;;;;;;;;;;;;;;;;;5074253;28;20268;-75
2022/01/13 11:37:29;;;;;;;;;;;;;;;;;;5093463;28;19965;-74
2022/01/13 11:39:55;;;;;;;;;;;;;;;;;;5100429;28;20549;-75
2022/01/13 11:42:20;;;;;;;;;;;;;;;;;;5055917;28;19989;-76
2022/01/13 11:45:06;;;;;;;;;;;;;;;;;;5072632;28;19920;-75
2022/01/13 11:47:31;;;;;;;;;;;;;;;;;;5081559;28;19947;-74
2022/01/13 11:50:05;;;;;;;;;;;;;;;;;;5074960;28;19939;-75
2022/01/13 11:52:41;;;;;;;;;;;;;;;;;;5057780;28;19916;-75
2022/01/13 11:55:21;;;;;;;;;;;;;;;;;;5073705;28;19965;-78
2022/01/13 11:57:47;;;;;;;;;;;;;;;;;;5085345;28;20167;-76
2022/01/13 12:00:22;;;;;;;;;;;;;;;;;;5090226;28;20352;-75
2022/01/13 12:02:51;;;;;;;;;;;;;;;;;;5089031;28;20287;-74
2022/01/13 12:05:19;;;;;;;;;;;;;;;;;;5089196;28;19923;-76
2022/01/13 12:07:44;;;;;;;;;;;;;;;;;;5090380;28;20006;-76
2022/01/13 12:10:24;;;;;;;;;;;;;;;;;;5092075;28;20007;-77
2022/01/13 12:12:49;;;;;;;;;;;;;;;;;;5090702;28;19920;-77
2022/01/13 12:15:21;;;;;;;;;;;;;;;;;;5092745;28;20347;-76
2022/01/13 12:18:01;;;;;;;;;;;;;;;;;;5094305;28;20001;-77
2022/01/13 12:20:51;;;;;;;;;;;;;;;;;;5093596;28;19916;-76
2022/01/13 12:23:35;;;;;;;;;;;;;;;;;;5090544;28;19944;-76
2022/01/13 12:26:01;;;;;;;;;;;;;;;;;;5078040;28;19916;-77
2022/01/13 12:28:26;;;;;;;;;;;;;;;;;;5097728;28;20034;-76
2022/01/13 12:30:52;;;;;;;;;;;;;;;;;;5092564;28;19916;-78
2022/01/13 12:33:37;;;;;;;;;;;;;;;;;;5094192;28;19962;-77
2022/01/13 12:36:03;;;;;;;;;;;;;;;;;;5095168;28;19962;-77
2022/01/13 12:38:28;;;;;;;;;;;;;;;;;;5095900;28;19959;-76
2022/01/13 12:41:02;;;;;;;;;;;;;;;;;;5078824;28;19941;-78
2022/01/13 12:46:02;;;;;;;;;;;;;;;;;;5096188;28;20280;-78
2022/01/13 12:48:28;;;;;;;;;;;;;;;;;;5100193;28;20187;-75
2022/01/13 12:50:53;;;;;;;;;;;;;;;;;;5089171;28;19966;-75
2022/01/13 12:53:20;;;;;;;;;;;;;;;;;;5093436;28;19916;-75
2022/01/13 12:56:01;;;;;;;;;;;;;;;;;;5094489;28;19916;-75
2022/01/13 12:58:28;;;;;;;;;;;;;;;;;;5078332;28;19963;-75
2022/01/13 13:01:12;;;;;;;;;;;;;;;;;;5078909;28;20311;-76
2022/01/13 13:03:38;;;;;;;;;;;;;;;;;;5079293;28;19916;-75
2022/01/13 13:06:10;;;;;;;;;;;;;;;;;;5101228;28;19916;-74
2022/01/13 13:08:35;;;;;;;;;;;;;;;;;;5084427;28;19942;-75
2022/01/13 13:11:01;;;;;;;;;;;;;;;;;;5077219;28;19916;-73
2022/01/13 13:13:28;;;;;;;;;;;;;;;;;;5095222;28;19996;-75
2022/01/13 13:15:53;;;;;;;;;;;;;;;;;;5076713;28;20284;-75
2022/01/13 13:18:20;;;;;;;;;;;;;;;;;;5095815;28;19916;-74
2022/01/13 13:20:48;;;;;;;;;;;;;;;;;;5061416;28;19954;-75
2022/01/13 13:23:13;;;;;;;;;;;;;;;;;;5062413;28;20353;-75
2022/01/13 13:25:39;;;;;;;;;;;;;;;;;;5080066;28;20023;-75
2022/01/13 13:28:24;;;;;;;;;;;;;;;;;;5100068;28;19946;-77
2022/01/13 13:30:50;;;;;;;;;;;;;;;;;;5097694;28;19916;-77
2022/01/13 13:33:16;;;;;;;;;;;;;;;;;;5079861;28;19916;-76
2022/01/13 13:35:41;;;;;;;;;;;;;;;;;;5097579;28;19941;-75
2022/01/13 13:38:10;;;;;;;;;;;;;;;;;;5079093;28;19917;-75
2022/01/13 13:40:41;;;;;;;;;;;;;;;;;;5079589;28;19916;-75
2022/01/13 13:43:06;;;;;;;;;;;;;;;;;;5062344;28;19916;-76
2022/01/13 13:45:32;;;;;;;;;;;;;;;;;;5079434;28;20403;-76
2022/01/13 13:47:58;;;;;;;;;;;;;;;;;;5103277;28;20318;-77
2022/01/13 13:50:23;;;;;;;;;;;;;;;;;;5100951;28;19916;-76
2022/01/13 13:53:07;;;;;;;;;;;;;;;;;;5082311;28;19916;-75
2022/01/13 13:55:33;;;;;;;;;;;;;;;;;;5097817;28;19920;-75
2022/01/13 13:57:58;;;;;;;;;;;;;;;;;;5094731;28;19954;-74
2022/01/13 14:00:26;;;;;;;;;;;;;;;;;;5097340;28;19923;-75
2022/01/13 14:02:52;;;;;;;;;;;;;;;;;;5096323;28;19916;-75
2022/01/13 14:05:18;;;;;;;;;;;;;;;;;;5097054;28;19916;-74
2022/01/13 14:07:44;;;;;;;;;;;;;;;;;;5096854;28;19916;-77
2022/01/13 14:10:12;;;;;;;;;;;;;;;;;;5082430;28;20006;-75
2022/01/13 14:12:55;;;;;;;;;;;;;;;;;;5095792;28;20218;-76
2022/01/13 14:15:20;;;;;;;;;;;;;;;;;;5095528;28;19916;-75
2022/01/13 14:17:47;;;;;;;;;;;;;;;;;;5096773;28;19972;-75
2022/01/13 14:20:18;;;;;;;;;;;;;;;;;;5096690;28;19916;-76
2022/01/13 14:22:44;;;;;;;;;;;;;;;;;;5096687;28;20002;-75
2022/01/13 14:25:13;;;;;;;;;;;;;;;;;;5096904;28;20054;-75
2022/01/13 14:27:55;;;;;;;;;;;;;;;;;;5096693;28;19916;-76
2022/01/13 14:30:31;;;;;;;;;;;;;;;;;;5103559;28;19978;-76
2022/01/13 14:33:15;;;;;;;;;;;;;;;;;;5095135;28;19916;-74
2022/01/13 14:35:40;;;;;;;;;;;;;;;;;;5096226;28;20014;-78
2022/01/13 14:38:10;;;;;;;;;;;;;;;;;;5095510;28;20010;-77
2022/01/13 14:40:45;;;;;;;;;;;;;;;;;;5078696;28;19916;-78
2022/01/13 14:43:18;;;;;;;;;;;;;;;;;;5095004;28;19958;-75
2022/01/13 14:45:44;;;;;;;;;;;;;;;;;;5095107;28;19923;-73
2022/01/13 14:48:09;;;;;;;;;;;;;;;;;;5096350;28;19916;-76
2022/01/13 14:50:34;;;;;;;;;;;;;;;;;;5098268;28;19906;-76
2022/01/13 16:33:28;;;;;;;127.50;43.40;;;;;;;;;;6235234;22;1400074;-78
2022/01/13 16:35:54;;;;;;;124.75;38.33;;;;;;;;;;6282927;22;20414;-78
2022/01/13 16:38:20;;;;;;;120.60;39.97;;;;;;;;;;6283887;22;20078;-80
2022/01/13 16:40:45;;;;;;;118.43;35.58;;;;;;;;;;6282634;22;20019;-80
2022/01/13 16:43:11;;;;;;;113.63;36.22;;;;;;;;;;6282610;22;20426;-78
2022/01/13 16:45:38;;;;;;;114.15;39.72;;;;;;;;;;6282223;22;20441;-81
2022/01/13 16:48:05;;;;;;;96.53;32.30;;;;;;;;;;6283823;22;20011;-80
2022/01/13 16:50:30;;;;;;;130.85;39.63;;;;;;;;;;6284002;22;19999;-80
2022/01/13 16:52:57;;;;;;;120.47;39.20;;;;;;;;;;6283334;22;20319;-80
2022/01/13 16:55:23;;;;;;;112.07;35.78;;;;;;;;;;6282452;22;20035;-80
2022/01/13 16:57:50;;;;;;;139.10;42.72;;;;;;;;;;6282522;22;20427;-78
2022/01/13 17:00:15;;;;;;;123.93;39.00;;;;;;;;;;6257231;22;20007;-80
2022/01/13 17:02:41;;;;;;;113.70;37.70;;;;;;;;;;6231347;22;20353;-78
2022/01/13 17:05:07;;;;;;;109.85;37.05;;;;;;;;;;6257294;22;20027;-78
2022/01/13 17:07:33;;;;;;;117.45;36.30;;;;;;;;;;6287289;22;20007;-80
2022/01/13 17:09:58;;;;;;;122.10;39.50;;;;;;;;;;6286835;22;20000;-79
2022/01/13 17:12:24;;;;;;;121.53;36.53;;;;;;;;;;6282157;22;20039;-80
2022/01/13 17:14:49;;;;;;;109.70;35.90;;;;;;;;;;6295105;22;20000;-79
2022/01/13 17:17:15;;;;;;;114.45;36.75;;;;;;;;;;6285281;22;20003;-80
2022/01/13 17:19:40;;;;;;;114.80;37.63;;;;;;;;;;6284050;22;20441;-80
2022/01/13 17:22:06;;;;;;;129.40;44.90;;;;;;;;;;6283655;22;20010;-80
2022/01/13 17:24:31;;;;;;;124.68;37.72;;;;;;;;;;6281502;22;20443;-80
2022/01/13 17:26:57;;;;;;;107.60;32.17;;;;;;;;;;6283876;22;20339;-80
2022/01/13 17:29:23;;;;;;;127.25;41.80;;;;;;;;;;6256722;22;20078;-81
2022/01/13 17:31:48;;;;;;;105.53;33.00;;;;;;;;;;6281527;22;20282;-80
2022/01/13 17:34:14;;;;;;;112.82;34.85;;;;;;;;;;6234354;22;19995;-79
2022/01/13 17:36:41;;;;;;;95.80;30.83;;;;;;;;;;6285198;22;20011;-79
2022/01/13 17:39:06;;;;;;;108.88;32.97;;;;;;;;;;6275074;22;20023;-79
2022/01/13 17:41:32;;;;;;;105.78;33.08;;;;;;;;;;6275265;22;20015;-79
2022/01/13 17:43:57;;;;;;;128.85;40.67;;;;;;;;;;6276671;22;20442;-79
2022/01/13 17:46:24;;;;;;;80.55;25.90;;;;;;;;;;6275359;22;20414;-80
2022/01/13 17:48:50;;;;;;;98.85;32.97;;;;;;;;;;6276650;22;20010;-79
2022/01/13 17:51:16;;;;;;;107.43;34.70;;;;;;;;;;6274352;22;20426;-78
2022/01/13 17:53:42;;;;;;;90.90;29.38;;;;;;;;;;6280370;22;20004;-78
2022/01/13 17:56:08;;;;;;;139.63;39.15;;;;;;;;;;6291525;22;20007;-80
2022/01/13 17:58:34;;;;;;;92.70;33.88;;;;;;;;;;6276372;22;20006;-79
2022/01/13 18:01:00;;;;;;;99.40;32.65;;;;;;;;;;6275240;22;20003;-79
2022/01/13 18:03:25;;;;;;;109.38;35.25;;;;;;;;;;6276157;22;20004;-78
2022/01/13 18:05:51;;;;;;;101.97;35.03;;;;;;;;;;6276203;22;20426;-81
2022/01/13 18:08:16;;;;;;;78.93;28.00;;;;;;;;;;6276191;22;20422;-79
2022/01/13 18:10:42;;;;;;;98.60;31.50;;;;;;;;;;6276365;22;20000;-78
2022/01/13 18:13:07;;;;;;;125.50;36.40;;;;;;;;;;6249308;22;20058;-80
2022/01/13 18:15:33;;;;;;;128.70;39.67;;;;;;;;;;6267105;22;20004;-81
2022/01/13 18:17:58;;;;;;;145.25;44.15;;;;;;;;;;6274988;22;20004;-80
2022/01/13 18:20:24;;;;;;;121.75;36.88;;;;;;;;;;6276174;22;20074;-80
2022/01/13 18:22:50;;;;;;;68.13;22.85;;;;;;;;;;6249289;22;20434;-80
2022/01/13 18:25:15;;;;;;;88.75;28.98;;;;;;;;;;6274896;22;20004;-79
2022/01/13 18:27:41;;;;;;;112.38;35.45;;;;;;;;;;6275152;22;20057;-80
2022/01/13 18:30:07;;;;;;;94.15;32.45;;;;;;;;;;6276299;22;19996;-78
2022/01/13 18:32:34;;;;;;;99.82;31.20;;;;;;;;;;6275835;22;20023;-78